createdAt,value
2018-12-19T00:01:29.618Z,98781.95
2018-12-19T00:03:00.355Z,98775.61
2018-12-19T00:04:30.239Z,98779.94
2018-12-19T00:06:00.347Z,98781.20
2018-12-19T00:07:30.222Z,98781.89
2018-12-19T00:09:03.351Z,98781.00
2018-12-19T00:10:33.559Z,98779.12
2018-12-19T00:12:03.662Z,98778.77
2018-12-19T00:13:33.530Z,98778.09
2018-12-19T00:15:24.698Z,98781.89
2018-12-19T00:16:54.582Z,98778.67
2018-12-19T00:23:19.614Z,98764.80
2018-12-19T00:24:49.520Z,98766.59
2018-12-19T00:26:19.404Z,98759.94
2018-12-19T00:27:49.421Z,98751.76
2018-12-19T00:29:19.335Z,98752.45
2018-12-19T00:30:49.248Z,98750.57
2018-12-19T00:32:19.131Z,98738.72
2018-12-19T00:33:49.001Z,98742.01
2018-12-19T00:35:18.996Z,98738.52
2018-12-19T00:36:48.975Z,98748.05
2018-12-19T00:38:18.966Z,98744.34
2018-12-19T00:39:48.847Z,98741.91
2018-12-19T00:41:18.714Z,98740.44
2018-12-19T00:42:48.698Z,98739.82
2018-12-19T00:44:18.594Z,98741.43
2018-12-19T00:45:48.472Z,98742.97
2018-12-19T00:47:18.358Z,98742.31
2018-12-19T00:48:48.259Z,98737.80
2018-12-19T00:50:18.144Z,98736.33
2018-12-19T00:51:48.036Z,98735.06
2018-12-19T00:53:17.889Z,98736.09
2018-12-19T00:54:47.804Z,98729.03
2018-12-19T00:56:17.687Z,98729.03
2018-12-19T00:57:47.559Z,98723.20
2018-12-19T00:59:17.423Z,98722.14
2018-12-19T01:00:47.426Z,98723.61
2018-12-19T01:02:17.295Z,98725.22
2018-12-19T01:03:47.165Z,98718.30
2018-12-19T01:05:17.128Z,98711.80
2018-12-19T01:06:59.926Z,98713.95
2018-12-19T01:08:29.915Z,98716.70
2018-12-19T01:09:59.814Z,98716.87
2018-12-19T01:11:29.719Z,98717.17
2018-12-19T01:12:59.599Z,98717.17
2018-12-19T01:14:29.487Z,98723.86
2018-12-19T01:15:59.376Z,98726.91
2018-12-19T01:17:29.251Z,98719.20
2018-12-19T01:18:59.203Z,98714.88
2018-12-19T01:20:29.102Z,98722.52
2018-12-19T01:21:58.970Z,98717.07
2018-12-19T01:23:28.871Z,98729.92
2018-12-19T01:24:58.783Z,98722.69
2018-12-19T01:26:28.697Z,98725.43
2018-12-19T01:27:58.580Z,98723.51
2018-12-19T01:29:28.464Z,98727.31
2018-12-19T01:30:58.655Z,98725.63
2018-12-19T01:32:28.528Z,98722.89
2018-12-19T01:33:59.702Z,98724.36
2018-12-19T01:35:29.599Z,98726.80
2018-12-19T01:36:59.454Z,98727.31
2018-12-19T01:38:29.321Z,98730.73
2018-12-19T01:39:59.223Z,98724.60
2018-12-19T01:41:29.083Z,98722.24
2018-12-19T01:42:58.976Z,98729.13
2018-12-19T01:44:28.844Z,98718.84
2018-12-19T01:45:59.122Z,98730.80
2018-12-19T01:47:29.127Z,98733.16
2018-12-19T01:48:59.038Z,98728.88
2018-12-19T01:50:28.924Z,98727.80
2018-12-19T01:51:58.790Z,98729.81
2018-12-19T01:53:28.651Z,98730.16
2018-12-19T01:54:58.539Z,98735.80
2018-12-19T01:56:29.198Z,98735.66
2018-12-19T01:57:59.060Z,98733.81
2018-12-19T01:59:28.933Z,98730.50
2018-12-19T02:00:59.646Z,98729.23
2018-12-19T02:02:30.591Z,98734.67
2018-12-19T02:04:00.640Z,98741.80
2018-12-19T02:05:30.661Z,98738.20
2018-12-19T02:07:00.858Z,98734.70
2018-12-19T02:08:30.732Z,98732.86
2018-12-19T02:10:00.984Z,98727.97
2018-12-19T02:11:30.855Z,98725.73
2018-12-19T02:13:00.783Z,98724.57
2018-12-19T02:14:32.025Z,98723.09
2018-12-19T02:16:10.210Z,98715.91
2018-12-19T02:17:40.068Z,98710.52
2018-12-19T02:19:10.046Z,98716.86
2018-12-19T02:20:39.919Z,98713.58
2018-12-19T02:22:09.799Z,98710.94
2018-12-19T02:23:40.458Z,98719.31
2018-12-19T02:25:10.384Z,98716.20
2018-12-19T02:26:40.253Z,98708.77
2018-12-19T02:28:10.126Z,98705.00
2018-12-19T02:29:39.999Z,98707.88
2018-12-19T02:31:09.936Z,98707.03
2018-12-19T02:32:39.812Z,98704.30
2018-12-19T02:34:09.835Z,98703.78
2018-12-19T02:35:39.864Z,98704.67
2018-12-19T02:37:09.854Z,98701.66
2018-12-19T02:38:39.720Z,98702.03
2018-12-19T02:40:09.629Z,98703.64
2018-12-19T02:41:39.527Z,98710.33
2018-12-19T02:43:09.394Z,98705.25
2018-12-19T02:44:47.021Z,98706.73
2018-12-19T02:46:16.890Z,98701.97
2018-12-19T02:47:46.755Z,98706.63
2018-12-19T02:49:16.639Z,98699.88
2018-12-19T02:50:46.511Z,98705.47
2018-12-19T02:52:16.382Z,98698.52
2018-12-19T02:53:46.275Z,98694.02
2018-12-19T02:55:16.248Z,98704.20
2018-12-19T02:56:46.115Z,98692.78
2018-12-19T02:58:16.102Z,98697.34
2018-12-19T02:59:45.989Z,98701.25
2018-12-19T03:01:15.865Z,98707.17
2018-12-19T03:02:45.735Z,98705.02
2018-12-19T03:04:15.717Z,98704.09
2018-12-19T03:05:45.613Z,98698.30
2018-12-19T03:07:15.702Z,98699.88
2018-12-19T03:08:59.287Z,98706.52
2018-12-19T03:10:29.173Z,98694.81
2018-12-19T03:11:59.166Z,98692.86
2018-12-19T03:13:29.775Z,98687.24
2018-12-19T03:14:59.660Z,98690.46
2018-12-19T03:16:29.710Z,98688.58
2018-12-19T03:17:59.581Z,98685.66
2018-12-19T03:19:29.467Z,98695.22
2018-12-19T03:20:59.337Z,98681.04
2018-12-19T03:22:29.199Z,98684.46
2018-12-19T03:23:59.067Z,98680.87
2018-12-19T03:25:28.951Z,98679.19
2018-12-19T03:26:58.831Z,98678.84
2018-12-19T03:28:28.695Z,98682.86
2018-12-19T03:29:58.587Z,98669.25
2018-12-19T03:31:28.468Z,98670.35
2018-12-19T03:32:58.355Z,98660.15
2018-12-19T03:34:28.333Z,98657.20
2018-12-19T03:35:58.319Z,98660.37
2018-12-19T03:37:28.322Z,98659.97
2018-12-19T03:38:58.193Z,98661.74
2018-12-19T03:40:28.313Z,98660.74
2018-12-19T03:41:58.397Z,98670.98
2018-12-19T03:43:28.495Z,98663.96
2018-12-19T03:44:58.360Z,98669.71
2018-12-19T03:46:28.247Z,98662.99
2018-12-19T03:47:58.114Z,98657.83
2018-12-19T03:49:28.099Z,98668.14
2018-12-19T03:50:58.089Z,98668.66
2018-12-19T03:52:27.977Z,98661.12
2018-12-19T03:53:57.834Z,98660.37
2018-12-19T03:55:27.710Z,98657.50
2018-12-19T03:56:57.598Z,98654.45
2018-12-19T03:58:27.458Z,98661.55
2018-12-19T04:00:10.283Z,98672.30
2018-12-19T04:01:40.156Z,98667.09
2018-12-19T04:03:10.017Z,98675.89
2018-12-19T04:04:40.100Z,98676.54
2018-12-19T04:06:09.968Z,98670.88
2018-12-19T04:07:39.861Z,98670.39
2018-12-19T04:09:09.739Z,98665.02
2018-12-19T04:10:48.499Z,98660.16
2018-12-19T04:12:18.407Z,98668.45
2018-12-19T04:13:48.273Z,98669.86
2018-12-19T04:15:18.147Z,98670.62
2018-12-19T04:16:48.140Z,98666.44
2018-12-19T04:18:18.031Z,98671.79
2018-12-19T04:19:47.894Z,98668.09
2018-12-19T04:21:17.811Z,98671.69
2018-12-19T04:22:47.798Z,98671.14
2018-12-19T04:24:17.670Z,98668.55
2018-12-19T04:25:47.584Z,98672.52
2018-12-19T04:27:17.544Z,98676.31
2018-12-19T04:28:47.528Z,98673.47
2018-12-19T04:30:17.408Z,98669.61
2018-12-19T04:31:47.283Z,98669.16
2018-12-19T04:33:17.264Z,98671.03
2018-12-19T04:34:47.163Z,98665.59
2018-12-19T04:36:17.182Z,98666.52
2018-12-19T04:37:47.053Z,98666.17
2018-12-19T04:39:16.930Z,98665.59
2018-12-19T04:40:46.920Z,98669.31
2018-12-19T04:42:16.786Z,98672.53
2018-12-19T04:43:46.683Z,98668.17
2018-12-19T04:45:16.693Z,98675.88
2018-12-19T04:46:46.698Z,98672.40
2018-12-19T04:48:16.555Z,98668.70
2018-12-19T04:49:46.462Z,98679.77
2018-12-19T04:51:16.435Z,98676.10
2018-12-19T04:53:10.250Z,98677.16
2018-12-19T04:54:40.131Z,98671.72
2018-12-19T04:56:10.303Z,98670.78
2018-12-19T04:57:40.172Z,98676.37
2018-12-19T04:59:10.031Z,98668.39
2018-12-19T05:00:39.914Z,98664.92
2018-12-19T05:02:09.783Z,98669.83
2018-12-19T05:03:52.772Z,98663.11
2018-12-19T05:05:22.767Z,98653.06
2018-12-19T05:06:52.661Z,98655.17
2018-12-19T05:08:22.540Z,98654.97
2018-12-19T05:10:26.844Z,98653.70
2018-12-19T05:11:56.844Z,98665.58
2018-12-19T05:13:41.252Z,98661.87
2018-12-19T05:15:11.262Z,98657.95
2018-12-19T05:16:41.139Z,98654.19
2018-12-19T05:18:11.122Z,98630.92
2018-12-19T05:19:41.360Z,98646.53
2018-12-19T05:21:25.183Z,98642.72
2018-12-19T05:23:03.195Z,98646.06
2018-12-19T05:24:33.068Z,98652.19
2018-12-19T05:26:03.186Z,98662.25
2018-12-19T05:27:33.050Z,98661.12
2018-12-19T05:29:03.044Z,98664.39
2018-12-19T05:30:33.071Z,98659.92
2018-12-19T05:32:03.187Z,98658.44
2018-12-19T05:33:33.058Z,98659.92
2018-12-19T05:35:03.531Z,98660.98
2018-12-19T05:36:33.415Z,98659.97
2018-12-19T05:38:03.294Z,98657.27
2018-12-19T05:39:33.159Z,98662.29
2018-12-19T05:41:03.033Z,98653.07
2018-12-19T05:42:33.010Z,98652.91
2018-12-19T05:44:03.015Z,98656.12
2018-12-19T05:45:32.873Z,98657.73
2018-12-19T05:47:02.867Z,98664.16
2018-12-19T05:48:32.773Z,98659.29
2018-12-19T05:50:03.439Z,98659.50
2018-12-19T05:51:33.439Z,98658.53
2018-12-19T05:53:03.317Z,98654.39
2018-12-19T05:54:33.322Z,98656.72
2018-12-19T05:56:03.323Z,98657.94
2018-12-19T05:57:33.323Z,98650.84
2018-12-19T05:59:03.323Z,98653.33
2018-12-19T06:00:33.597Z,98646.40
2018-12-19T06:02:03.817Z,98641.91
2018-12-19T06:03:33.684Z,98642.00
2018-12-19T06:05:04.638Z,98649.73
2018-12-19T06:06:34.529Z,98648.09
2018-12-19T06:08:04.514Z,98661.54
2018-12-19T06:09:44.878Z,98648.00
2018-12-19T06:11:14.746Z,98648.72
2018-12-19T06:12:44.619Z,98648.21
2018-12-19T06:14:14.493Z,98647.83
2018-12-19T06:15:44.512Z,98649.78
2018-12-19T06:17:14.395Z,98647.78
2018-12-19T06:18:44.386Z,98641.87
2018-12-19T06:20:14.267Z,98648.08
2018-12-19T06:21:44.158Z,98644.91
2018-12-19T06:23:14.030Z,98652.15
2018-12-19T06:24:43.897Z,98657.14
2018-12-19T06:26:13.777Z,98666.61
2018-12-19T06:27:43.748Z,98670.64
2018-12-19T06:29:24.017Z,98663.57
2018-12-19T06:33:18.425Z,98658.41
2018-12-19T06:34:48.288Z,98660.14
2018-12-19T06:36:18.231Z,98658.79
2018-12-19T06:37:48.118Z,98659.00
2018-12-19T06:39:18.103Z,98658.95
2018-12-19T06:40:47.990Z,98663.70
2018-12-19T06:42:17.994Z,98655.88
2018-12-19T06:43:47.860Z,98658.06
2018-12-19T06:45:17.740Z,98662.59
2018-12-19T06:46:47.625Z,98665.59
2018-12-19T06:48:17.554Z,98674.77
2018-12-19T06:49:47.421Z,98675.45
2018-12-19T06:51:18.930Z,98677.65
2018-12-19T06:52:49.050Z,98671.81
2018-12-19T06:54:19.018Z,98669.95
2018-12-19T06:55:48.988Z,98679.09
2018-12-19T06:57:59.933Z,98668.30
2018-12-19T06:59:45.159Z,98659.37
2018-12-19T07:01:15.030Z,98652.37
2018-12-19T07:02:45.018Z,98656.88
2018-12-19T07:04:15.004Z,98655.98
2018-12-19T07:05:44.993Z,98654.28
2018-12-19T07:07:14.875Z,98648.53
2018-12-19T07:08:44.741Z,98646.14
2018-12-19T07:11:03.924Z,98647.03
2018-12-19T07:12:33.799Z,98649.53
2018-12-19T07:14:03.803Z,98647.25
2018-12-19T07:15:33.803Z,98643.39
2018-12-19T07:19:49.051Z,98643.31
2018-12-19T07:21:18.922Z,98651.23
2018-12-19T07:22:48.824Z,98642.92
2018-12-19T07:24:18.885Z,98647.64
2018-12-19T07:27:17.166Z,98644.42
2018-12-19T07:28:47.155Z,98642.71
2018-12-19T07:30:17.032Z,98649.73
2018-12-19T07:31:46.923Z,98655.86
2018-12-19T07:33:16.800Z,98656.77
2018-12-19T07:34:46.816Z,98660.13
2018-12-19T07:36:16.835Z,98655.94
2018-12-19T07:37:46.823Z,98652.43
2018-12-19T07:39:17.236Z,98665.11
2018-12-19T07:40:47.197Z,98660.91
2018-12-19T07:42:17.216Z,98669.41
2018-12-19T07:43:47.191Z,98667.86
2018-12-19T07:45:17.262Z,98674.62
2018-12-19T07:46:47.265Z,98682.45
2018-12-19T07:48:17.604Z,98676.62
2018-12-19T07:49:47.564Z,98668.68
2018-12-19T07:51:17.630Z,98663.47
2018-12-19T07:52:47.959Z,98663.67
2018-12-19T07:54:17.887Z,98666.49
2018-12-19T07:55:48.084Z,98667.06
2018-12-19T07:57:18.073Z,98671.36
2018-12-19T07:58:48.019Z,98669.40
2018-12-19T08:00:18.001Z,98667.00
2018-12-19T08:01:47.987Z,98667.31
2018-12-19T08:03:17.947Z,98668.02
2018-12-19T08:04:48.110Z,98665.09
2018-12-19T08:06:18.091Z,98664.13
2018-12-19T08:07:48.037Z,98659.77
2018-12-19T08:09:17.971Z,98670.38
2018-12-19T08:10:52.145Z,98669.27
2018-12-19T08:12:19.944Z,98678.75
2018-12-19T08:13:49.932Z,98673.67
2018-12-19T08:15:19.887Z,98679.81
2018-12-19T08:16:49.976Z,98683.32
2018-12-19T08:18:19.922Z,98676.11
2018-12-19T08:19:49.896Z,98682.95
2018-12-19T08:21:19.993Z,98685.72
2018-12-19T08:22:49.964Z,98686.83
2018-12-19T08:24:19.953Z,98685.88
2018-12-19T08:25:49.883Z,98682.65
2018-12-19T08:27:26.814Z,98692.21
2018-12-19T08:28:56.902Z,98697.94
2018-12-19T08:30:26.843Z,98707.13
2018-12-19T08:31:56.923Z,98698.47
2018-12-19T08:33:26.881Z,98704.67
2018-12-19T08:35:15.739Z,98703.03
2018-12-19T08:36:45.692Z,98711.75
2018-12-19T08:38:15.621Z,98706.61
2018-12-19T08:39:45.547Z,98698.20
2018-12-19T08:41:15.532Z,98711.24
2018-12-19T08:42:45.509Z,98710.82
2018-12-19T08:44:15.510Z,98713.44
2018-12-19T08:45:45.864Z,98714.47
2018-12-19T08:47:15.828Z,98709.22
2018-12-19T08:48:45.782Z,98711.86
2018-12-19T08:50:15.811Z,98713.48
2018-12-19T08:51:45.924Z,98714.62
2018-12-19T08:53:15.860Z,98706.31
2018-12-19T08:54:45.763Z,98717.28
2018-12-19T08:56:15.688Z,98711.75
2018-12-19T08:57:58.872Z,98715.28
2018-12-19T08:59:28.877Z,98716.84
2018-12-19T09:00:58.839Z,98714.31
2018-12-19T09:02:28.914Z,98718.14
2018-12-19T09:03:58.860Z,98715.75
2018-12-19T09:05:28.952Z,98712.67
2018-12-19T09:06:58.898Z,98721.33
2018-12-19T09:08:28.919Z,98720.00
2018-12-19T09:09:58.820Z,98723.06
2018-12-19T09:11:28.795Z,98718.14
2018-12-19T09:12:58.746Z,98719.09
2018-12-19T09:14:28.677Z,98726.94
2018-12-19T09:16:05.275Z,98727.16
2018-12-19T09:17:35.866Z,98727.08
2018-12-19T09:19:20.743Z,98726.57
2018-12-19T09:20:50.825Z,98728.95
2018-12-19T09:22:21.684Z,98727.24
2018-12-19T09:23:51.688Z,98731.37
2018-12-19T09:25:21.776Z,98730.61
2018-12-19T09:26:51.721Z,98731.13
2018-12-19T09:28:21.761Z,98740.70
2018-12-19T09:29:51.672Z,98734.88
2018-12-19T09:31:21.787Z,98736.81
2018-12-19T09:32:52.670Z,98734.13
2018-12-19T09:34:22.884Z,98738.31
2018-12-19T09:35:52.855Z,98733.61
2018-12-19T09:37:22.889Z,98735.50
2018-12-19T09:38:53.008Z,98743.27
2018-12-19T09:40:22.935Z,98737.64
2018-12-19T09:41:52.980Z,98739.00
2018-12-19T09:43:22.927Z,98740.62
2018-12-19T09:44:52.883Z,98741.91
2018-12-19T09:46:22.832Z,98737.86
2018-12-19T09:47:52.812Z,98746.31
2018-12-19T09:49:22.773Z,98743.72
2018-12-19T09:51:00.914Z,98740.19
2018-12-19T09:52:31.075Z,98735.23
2018-12-19T09:54:01.133Z,98740.75
2018-12-19T09:55:31.072Z,98745.99
2018-12-19T09:57:01.024Z,98747.09
2018-12-19T09:58:31.119Z,98745.28
2018-12-19T10:00:01.035Z,98751.36
2018-12-19T10:01:30.949Z,98757.33
2018-12-19T10:03:01.001Z,98746.47
2018-12-19T10:04:30.972Z,98746.16
2018-12-19T10:06:00.847Z,98741.48
2018-12-19T10:07:34.075Z,98736.40
2018-12-19T10:09:07.668Z,98728.81
2018-12-19T10:10:38.567Z,98724.73
2018-12-19T10:12:08.483Z,98715.26
2018-12-19T10:13:38.352Z,98720.50
2018-12-19T10:15:08.239Z,98720.98
2018-12-19T10:16:38.123Z,98721.83
2018-12-19T10:18:08.032Z,98725.19
2018-12-19T10:19:37.951Z,98721.06
2018-12-19T10:21:07.971Z,98721.06
2018-12-19T10:22:38.007Z,98720.79
2018-12-19T10:24:07.896Z,98724.06
2018-12-19T10:25:37.762Z,98721.86
2018-12-19T10:27:07.670Z,98718.57
2018-12-19T10:28:37.636Z,98712.89
2018-12-19T10:30:09.751Z,98715.75
2018-12-19T10:31:39.690Z,98709.48
2018-12-19T10:33:09.842Z,98704.45
2018-12-19T10:34:42.722Z,98697.86
2018-12-19T10:36:12.744Z,98705.42
2018-12-19T10:37:42.847Z,98710.19
2018-12-19T10:39:16.167Z,98698.80
2018-12-19T10:40:46.067Z,98686.80
2018-12-19T10:42:16.059Z,98693.45
2018-12-19T10:43:46.027Z,98691.64
2018-12-19T10:45:16.050Z,98696.27
2018-12-19T10:46:46.287Z,98704.25
2018-12-19T10:48:16.242Z,98695.23
2018-12-19T10:49:46.326Z,98698.21
2018-12-19T10:51:16.371Z,98696.56
2018-12-19T10:52:46.464Z,98691.78
2018-12-19T10:54:16.878Z,98694.75
2018-12-19T10:55:46.868Z,98687.81
2018-12-19T10:57:16.845Z,98694.69
2018-12-19T10:58:46.961Z,98699.61
2018-12-19T11:00:23.020Z,98697.59
2018-12-19T11:01:53.054Z,98706.02
2018-12-19T11:03:23.151Z,98705.51
2018-12-19T11:04:54.316Z,98703.97
2018-12-19T11:06:24.621Z,98698.18
2018-12-19T11:07:54.974Z,98705.67
2018-12-19T11:09:25.086Z,98700.56
2018-12-19T11:10:55.378Z,98700.75
2018-12-19T11:12:25.572Z,98693.11
2018-12-19T11:13:55.693Z,98697.44
2018-12-19T11:15:25.765Z,98700.48
2018-12-19T11:16:56.142Z,98693.02
2018-12-19T11:18:26.741Z,98687.98
2018-12-19T11:19:57.230Z,98695.71
2018-12-19T11:21:27.355Z,98690.80
2018-12-19T11:22:57.874Z,98692.94
2018-12-19T11:24:28.121Z,98696.53
2018-12-19T11:25:58.251Z,98693.23
2018-12-19T11:27:28.505Z,98698.55
2018-12-19T11:28:58.952Z,98694.17
2018-12-19T11:30:29.168Z,98699.53
2018-12-19T11:31:59.307Z,98696.73
2018-12-19T11:33:29.763Z,98691.75
2018-12-19T11:34:59.936Z,98691.14
2018-12-19T11:36:30.026Z,98689.61
2018-12-19T11:38:00.087Z,98687.46
2018-12-19T11:39:30.090Z,98682.30
2018-12-19T11:41:00.053Z,98679.80
2018-12-19T11:42:30.086Z,98684.38
2018-12-19T11:44:00.084Z,98685.77
2018-12-19T11:45:30.031Z,98679.56
2018-12-19T11:47:00.035Z,98677.24
2018-12-19T11:48:30.040Z,98676.03
2018-12-19T11:50:00.061Z,98678.53
2018-12-19T11:51:30.100Z,98679.14
2018-12-19T11:53:00.076Z,98673.19
2018-12-19T11:54:30.008Z,98680.39
2018-12-19T11:56:00.051Z,98679.30
2018-12-19T11:57:30.203Z,98679.22
2018-12-19T11:59:00.254Z,98673.64
2018-12-19T12:00:30.435Z,98674.48
2018-12-19T12:02:00.637Z,98677.41
2018-12-19T12:03:30.910Z,98670.34
2018-12-19T12:06:56.759Z,98669.02
2018-12-19T12:08:26.848Z,98664.53
2018-12-19T12:10:20.497Z,98659.14
2018-12-19T12:11:50.581Z,98659.23
2018-12-19T12:13:21.080Z,98657.88
2018-12-19T12:14:51.185Z,98648.52
2018-12-19T12:16:21.451Z,98654.79
2018-12-19T12:17:51.556Z,98648.66
2018-12-19T12:19:21.740Z,98647.53
2018-12-19T12:20:51.867Z,98647.53
2018-12-19T12:22:22.641Z,98650.10
2018-12-19T12:23:53.154Z,98639.34
2018-12-19T12:25:23.254Z,98636.69
2018-12-19T12:26:53.941Z,98638.53
2018-12-19T12:28:24.089Z,98636.31
2018-12-19T12:29:54.644Z,98629.40
2018-12-19T12:31:24.783Z,98622.20
2018-12-19T12:32:55.479Z,98615.32
2018-12-19T12:34:25.587Z,98623.77
2018-12-19T12:35:55.943Z,98617.79
2018-12-19T12:37:26.036Z,98622.67
2018-12-19T12:38:56.300Z,98628.58
2018-12-19T12:40:26.372Z,98620.94
2018-12-19T12:41:56.600Z,98621.66
2018-12-19T12:43:26.779Z,98620.77
2018-12-19T12:44:57.106Z,98626.02
2018-12-19T12:46:27.607Z,98625.28
2018-12-19T12:47:57.726Z,98627.61
2018-12-19T12:49:27.847Z,98628.90
2018-12-19T12:50:58.190Z,98629.94
2018-12-19T12:52:28.259Z,98628.43
2018-12-19T12:53:58.307Z,98629.97
2018-12-19T12:55:28.384Z,98625.95
2018-12-19T12:56:58.657Z,98623.13
2018-12-19T12:58:28.747Z,98622.61
2018-12-19T12:59:58.982Z,98614.97
2018-12-19T13:01:29.007Z,98611.44
2018-12-19T13:02:59.100Z,98613.22
2018-12-19T13:04:29.106Z,98611.70
2018-12-19T13:05:59.314Z,98609.14
2018-12-19T13:07:29.495Z,98610.70
2018-12-19T13:08:59.821Z,98608.02
2018-12-19T13:10:36.125Z,98607.91
2018-12-19T13:12:02.115Z,98607.13
2018-12-19T13:13:32.178Z,98607.13
2018-12-19T13:15:02.486Z,98609.44
2018-12-19T13:16:32.747Z,98610.03
2018-12-19T13:18:03.071Z,98603.89
2018-12-19T13:21:29.659Z,98608.81
2018-12-19T13:24:55.231Z,98601.63
2018-12-19T13:26:25.270Z,98610.66
2018-12-19T13:27:55.542Z,98602.91
2018-12-19T13:29:25.970Z,98600.35
2018-12-19T13:30:56.246Z,98596.52
2018-12-19T13:32:26.643Z,98595.99
2018-12-19T13:33:56.759Z,98596.23
2018-12-19T13:35:26.851Z,98593.96
2018-12-19T13:36:57.006Z,98594.70
2018-12-19T13:38:27.014Z,98599.79
2018-12-19T13:39:57.052Z,98600.03
2018-12-19T13:41:27.170Z,98590.48
2018-12-19T13:42:57.144Z,98589.91
2018-12-19T13:44:27.114Z,98589.91
2018-12-19T13:45:57.200Z,98588.50
2018-12-19T13:47:27.230Z,98585.84
2018-12-19T13:48:57.293Z,98577.16
2018-12-19T13:50:27.382Z,98578.44
2018-12-19T13:51:58.073Z,98573.88
2018-12-19T13:53:28.160Z,98572.84
2018-12-19T13:54:58.332Z,98566.73
2018-12-19T13:56:28.353Z,98564.85
2018-12-19T13:57:58.356Z,98561.41
2018-12-19T13:59:28.410Z,98557.34
2018-12-19T14:00:58.478Z,98554.25
2018-12-19T14:02:28.576Z,98553.97
2018-12-19T14:03:58.572Z,98547.33
2018-12-19T14:05:36.721Z,98553.71
2018-12-19T14:07:07.506Z,98552.97
2018-12-19T14:10:33.536Z,98549.29
2018-12-19T14:12:03.997Z,98549.00
2018-12-19T14:13:34.449Z,98539.97
2018-12-19T14:15:05.558Z,98536.77
2018-12-19T14:16:35.668Z,98544.43
2018-12-19T14:18:05.991Z,98544.57
2018-12-19T14:19:36.523Z,98541.48
2018-12-19T14:21:06.766Z,98543.55
2018-12-19T14:22:37.202Z,98549.15
2018-12-19T14:24:07.303Z,98545.70
2018-12-19T14:25:37.689Z,98561.91
2018-12-19T14:27:07.927Z,98567.02
2018-12-19T14:28:37.966Z,98568.54
2018-12-19T14:30:08.880Z,98571.88
2018-12-19T14:31:39.381Z,98577.47
2018-12-19T14:33:09.499Z,98582.08
2018-12-19T14:34:40.357Z,98591.61
2018-12-19T14:36:10.348Z,98596.95
2018-12-19T14:37:40.322Z,98589.67
2018-12-19T14:39:10.595Z,98588.26
2018-12-19T14:41:00.360Z,98597.03
2018-12-19T14:42:30.720Z,98600.83
2018-12-19T14:44:00.848Z,98602.09
2018-12-19T14:45:31.019Z,98608.46
2018-12-19T14:47:01.286Z,98607.65
2018-12-19T14:48:31.455Z,98600.34
2018-12-19T14:50:01.584Z,98604.77
2018-12-19T14:51:32.314Z,98600.15
2018-12-19T14:53:02.786Z,98605.20
2018-12-19T14:54:32.946Z,98602.70
2018-12-19T14:56:03.060Z,98607.14
2018-12-19T14:57:33.097Z,98610.31
2018-12-19T14:59:03.333Z,98607.88
2018-12-19T15:00:33.775Z,98606.61
2018-12-19T15:02:04.404Z,98606.22
2018-12-19T15:03:34.369Z,98603.25
2018-12-19T15:05:04.588Z,98607.02
2018-12-19T15:06:34.623Z,98602.12
2018-12-19T15:08:04.905Z,98601.86
2018-12-19T15:09:35.008Z,98602.66
2018-12-19T15:11:05.225Z,98603.25
2018-12-19T15:12:35.347Z,98601.39
2018-12-19T15:14:05.669Z,98606.98
2018-12-19T15:15:35.917Z,98605.71
2018-12-19T15:17:06.192Z,98606.19
2018-12-19T15:18:36.216Z,98608.70
2018-12-19T15:20:06.716Z,98608.70
2018-12-19T15:21:37.469Z,98607.27
2018-12-19T15:23:07.427Z,98606.32
2018-12-19T15:24:37.460Z,98605.55
2018-12-19T15:26:07.453Z,98608.67
2018-12-19T15:27:37.452Z,98600.72
2018-12-19T15:29:07.782Z,98602.53
2018-12-19T15:30:37.797Z,98603.75
2018-12-19T15:32:07.789Z,98598.16
2018-12-19T15:33:37.745Z,98596.97
2018-12-19T15:35:07.935Z,98597.00
2018-12-19T15:36:38.179Z,98593.33
2018-12-19T15:38:08.099Z,98596.80
2018-12-19T15:39:38.084Z,98595.61
2018-12-19T15:41:08.133Z,98596.95
2018-12-19T15:42:38.109Z,98595.45
2018-12-19T15:44:08.089Z,98604.80
2018-12-19T15:45:38.143Z,98611.58
2018-12-19T15:47:08.116Z,98614.00
2018-12-19T15:48:38.057Z,98618.72
2018-12-19T15:50:08.243Z,98620.02
2018-12-19T15:51:38.260Z,98619.38
2018-12-19T15:53:08.199Z,98614.58
2018-12-19T15:54:38.291Z,98610.62
2018-12-19T15:56:08.363Z,98621.71
2018-12-19T15:57:38.405Z,98618.16
2018-12-19T15:59:08.390Z,98619.70
2018-12-19T16:00:38.361Z,98624.56
2018-12-19T16:02:08.323Z,98622.94
2018-12-19T16:03:38.292Z,98626.34
2018-12-19T16:05:08.335Z,98626.66
2018-12-19T16:06:38.276Z,98628.17
2018-12-19T16:08:08.376Z,98622.51
2018-12-19T16:09:38.477Z,98620.36
2018-12-19T16:11:08.408Z,98622.26
2018-12-19T16:12:41.879Z,98626.31
2018-12-19T16:14:11.876Z,98623.84
2018-12-19T16:15:41.838Z,98621.84
2018-12-19T16:17:11.812Z,98623.84
2018-12-19T16:18:41.852Z,98633.30
2018-12-19T16:20:11.836Z,98631.69
2018-12-19T16:21:41.798Z,98634.77
2018-12-19T16:23:11.728Z,98633.77
2018-12-19T16:24:41.735Z,98627.24
2018-12-19T16:26:17.642Z,98619.95
2018-12-19T16:27:47.561Z,98630.13
2018-12-19T16:29:17.540Z,98628.83
2018-12-19T16:30:47.520Z,98630.64
2018-12-19T16:32:17.492Z,98630.91
2018-12-19T16:33:47.556Z,98629.80
2018-12-19T16:35:17.547Z,98625.12
2018-12-19T16:36:47.486Z,98614.97
2018-12-19T16:38:18.352Z,98618.86
2018-12-19T16:39:48.570Z,98614.58
2018-12-19T16:41:18.467Z,98612.54
2018-12-19T16:42:48.363Z,98613.20
2018-12-19T16:44:18.278Z,98612.08
2018-12-19T16:45:48.283Z,98611.58
2018-12-19T16:47:18.163Z,98613.30
2018-12-19T16:48:48.482Z,98609.72
2018-12-19T16:50:18.433Z,98612.27
2018-12-19T16:51:48.432Z,98613.00
2018-12-19T16:53:18.450Z,98607.56
2018-12-19T16:54:48.379Z,98606.41
2018-12-19T16:56:18.371Z,98601.31
2018-12-19T16:57:48.675Z,98602.82
2018-12-19T16:59:18.613Z,98602.11
2018-12-19T17:00:48.505Z,98601.41
2018-12-19T17:02:18.400Z,98599.70
2018-12-19T17:03:48.295Z,98605.30
2018-12-19T17:05:18.552Z,98605.59
2018-12-19T17:06:48.568Z,98600.95
2018-12-19T17:08:18.450Z,98603.73
2018-12-19T17:09:48.357Z,98610.03
2018-12-19T17:11:18.259Z,98611.98
2018-12-19T17:12:52.766Z,98608.11
2018-12-19T17:14:20.347Z,98606.47
2018-12-19T17:15:50.388Z,98604.14
2018-12-19T17:17:20.355Z,98605.36
2018-12-19T17:18:50.420Z,98604.15
2018-12-19T17:20:20.448Z,98609.67
2018-12-19T17:21:50.442Z,98613.48
2018-12-19T17:23:20.493Z,98619.78
2018-12-19T17:24:50.493Z,98615.87
2018-12-19T17:26:20.383Z,98614.87
2018-12-19T17:27:50.412Z,98606.08
2018-12-19T17:29:20.414Z,98607.13
2018-12-19T17:30:50.329Z,98602.83
2018-12-19T17:32:20.355Z,98597.18
2018-12-19T17:33:50.328Z,98601.22
2018-12-19T17:35:20.749Z,98599.84
2018-12-19T17:36:50.944Z,98602.55
2018-12-19T17:38:20.902Z,98603.76
2018-12-19T17:39:50.898Z,98607.80
2018-12-19T17:41:20.898Z,98615.90
2018-12-19T17:42:51.285Z,98610.88
2018-12-19T17:44:21.341Z,98614.53
2018-12-19T17:45:51.436Z,98608.12
2018-12-19T17:47:21.477Z,98614.53
2018-12-19T17:48:51.571Z,98610.72
2018-12-19T17:50:21.520Z,98611.33
2018-12-19T17:51:51.808Z,98616.19
2018-12-19T17:53:21.797Z,98611.27
2018-12-19T17:54:51.775Z,98606.69
2018-12-19T17:56:27.947Z,98606.31
2018-12-19T17:57:57.869Z,98610.44
2018-12-19T17:59:28.025Z,98611.99
2018-12-19T18:00:57.975Z,98615.64
2018-12-19T18:02:27.887Z,98611.16
2018-12-19T18:03:57.891Z,98599.67
2018-12-19T18:05:28.029Z,98602.94